createdAt,value
2019-05-22T05:00:52.300Z,11.50
2019-05-22T05:03:34.627Z,11.60
2019-05-22T05:06:09.878Z,11.60
2019-05-22T05:08:50.645Z,11.60
2019-05-22T05:14:09.846Z,11.60
2019-05-22T05:16:45.057Z,11.70
2019-05-22T05:19:33.725Z,11.70
2019-05-22T05:21:55.534Z,11.70
2019-05-22T05:24:26.267Z,11.70
2019-05-22T05:27:08.426Z,11.70
2019-05-22T05:29:38.787Z,11.70
2019-05-22T05:32:22.556Z,11.80
2019-05-22T05:35:01.369Z,11.80
2019-05-22T05:40:33.661Z,11.80
2019-05-22T05:43:23.659Z,11.80
2019-05-22T05:46:43.779Z,11.80
2019-05-22T05:48:30.194Z,11.80
2019-05-22T05:51:58.447Z,11.80
2019-05-22T05:54:22.825Z,11.80
2019-05-22T05:58:03.460Z,11.80
2019-05-22T06:06:24.888Z,11.90
2019-05-22T06:10:03.850Z,12.00
2019-05-22T06:24:42.690Z,12.00
2019-05-22T06:24:57.878Z,12.10
2019-05-22T06:26:57.470Z,12.00
2019-05-22T06:35:51.933Z,12.20
2019-05-22T06:39:50.176Z,12.20
2019-05-22T06:41:48.365Z,12.30
2019-05-22T06:44:40.570Z,12.40
2019-05-22T06:47:14.099Z,12.40
2019-05-22T06:49:44.562Z,12.50
2019-05-22T06:52:13.814Z,12.60
2019-05-22T06:54:47.309Z,12.40
2019-05-22T06:57:22.696Z,12.50
2019-05-22T07:00:11.621Z,12.40
2019-05-22T07:02:23.689Z,12.60
2019-05-22T07:04:53.136Z,12.60
2019-05-22T07:07:23.803Z,12.70
2019-05-22T07:09:55.310Z,12.60
2019-05-22T07:12:33.201Z,12.60
2019-05-22T07:15:11.011Z,12.60
2019-05-22T07:17:42.436Z,12.70
2019-05-22T07:20:11.863Z,12.70
2019-05-22T07:22:42.396Z,12.70
2019-05-22T07:25:12.328Z,12.60
2019-05-22T07:27:41.235Z,12.80
2019-05-22T07:30:11.864Z,12.70
2019-05-22T07:32:42.910Z,12.80
2019-05-22T07:35:13.830Z,12.80
2019-05-22T07:37:48.831Z,12.80
2019-05-22T07:40:19.748Z,12.80
2019-05-22T07:42:51.283Z,12.80
2019-05-22T07:45:22.304Z,12.80
2019-05-22T07:47:52.333Z,12.90
2019-05-22T07:50:22.913Z,12.90
2019-05-22T07:52:52.613Z,12.90
2019-05-22T07:55:23.015Z,13.00
2019-05-22T07:58:03.487Z,13.10
2019-05-22T08:00:36.059Z,13.10
2019-05-22T08:03:06.010Z,13.10
2019-05-22T08:05:39.701Z,13.20
2019-05-22T08:08:11.932Z,13.20
2019-05-22T08:10:42.136Z,13.20
2019-05-22T08:13:18.579Z,13.20
2019-05-22T08:15:47.670Z,13.40
2019-05-22T08:18:17.180Z,13.50
2019-05-22T08:20:51.724Z,13.60
2019-05-22T08:23:22.230Z,13.70
2019-05-22T08:25:51.955Z,13.70
2019-05-22T08:37:00.284Z,14.00
2019-05-22T08:39:30.753Z,14.10
2019-05-22T08:42:02.089Z,14.20
2019-05-22T08:44:31.382Z,14.30
2019-05-22T08:47:08.015Z,14.40
2019-05-22T08:49:34.966Z,14.50
2019-05-22T08:52:04.908Z,14.50
2019-05-22T08:54:36.582Z,14.60
2019-05-22T08:57:09.301Z,14.70
2019-05-22T08:59:41.451Z,14.70
2019-05-22T09:02:16.357Z,14.70
2019-05-22T09:04:57.481Z,14.80
2019-05-22T09:07:22.422Z,14.80
2019-05-22T09:09:48.791Z,14.90
2019-05-22T09:12:19.757Z,14.80
2019-05-22T09:14:53.293Z,14.90
2019-05-22T09:17:24.031Z,15.10
2019-05-22T09:19:55.359Z,15.20
2019-05-22T09:22:39.540Z,15.30
2019-05-22T09:25:01.659Z,15.30
2019-05-22T09:27:30.575Z,15.40
2019-05-22T09:30:00.985Z,15.40
2019-05-22T09:32:31.509Z,15.30
2019-05-22T09:35:10.130Z,15.40
2019-05-22T09:37:45.493Z,15.40
2019-05-22T09:41:56.034Z,15.50
2019-05-22T09:42:58.897Z,15.50
2019-05-22T09:46:03.308Z,15.50
2019-05-22T09:48:23.644Z,15.60
2019-05-22T09:51:02.349Z,15.60
2019-05-22T09:53:29.124Z,15.60
2019-05-22T09:56:00.078Z,15.60
2019-05-22T09:58:30.340Z,15.70
2019-05-22T10:01:12.118Z,15.80
2019-05-22T10:03:37.810Z,15.80
2019-05-22T10:06:24.883Z,16.00
2019-05-22T10:08:54.417Z,16.30
2019-05-22T10:11:25.266Z,16.50
2019-05-22T10:17:42.886Z,16.70
2019-05-22T10:19:30.124Z,16.50
2019-05-22T10:22:10.506Z,16.20
2019-05-22T10:25:11.803Z,16.30
2019-05-22T10:27:17.833Z,16.40
2019-05-22T10:29:49.285Z,16.70
2019-05-22T10:32:24.093Z,16.70
2019-05-22T10:34:57.640Z,16.60
2019-05-22T10:40:23.379Z,16.50
2019-05-22T10:42:54.279Z,16.70
2019-05-22T10:45:24.372Z,16.70
2019-05-22T10:48:00.139Z,17.00
2019-05-22T10:50:34.713Z,17.20
2019-05-22T10:53:33.882Z,17.50
2019-05-22T10:56:29.257Z,17.20
2019-05-22T11:04:39.355Z,17.40
2019-05-22T11:07:12.722Z,17.40
2019-05-22T11:10:36.686Z,16.80
2019-05-22T11:12:38.582Z,16.70
2019-05-22T11:18:32.322Z,17.40
2019-05-22T11:21:12.734Z,17.90
2019-05-22T11:23:31.452Z,17.70
2019-05-22T11:29:20.865Z,18.10
2019-05-22T11:32:00.700Z,18.30
2019-05-22T11:34:52.315Z,18.30
2019-05-22T11:37:03.340Z,18.40
2019-05-22T11:39:39.307Z,18.60
2019-05-22T11:45:28.163Z,19.00
2019-05-22T11:50:50.440Z,19.10
2019-05-22T11:53:33.319Z,18.30
2019-05-22T11:59:13.933Z,17.70
2019-05-22T12:01:56.766Z,18.20
2019-05-22T12:04:19.065Z,18.30
2019-05-22T12:07:02.912Z,18.50
2019-05-22T12:10:31.468Z,18.50
2019-05-22T12:15:28.394Z,19.10
2019-05-22T12:18:07.990Z,18.60
2019-05-22T12:20:42.472Z,18.40
2019-05-22T12:23:26.122Z,18.50
2019-05-22T12:25:48.076Z,19.00
2019-05-22T12:28:25.180Z,18.90
2019-05-22T12:30:50.921Z,19.10
2019-05-22T12:33:29.524Z,18.30
2019-05-22T12:36:22.455Z,18.80
2019-05-22T12:38:36.967Z,18.80
2019-05-22T12:41:07.758Z,18.40
2019-05-22T12:43:44.990Z,18.80
2019-05-22T12:46:16.650Z,18.60
2019-05-22T12:48:47.157Z,18.90
2019-05-22T12:51:22.967Z,19.00
2019-05-22T12:53:57.441Z,18.70
2019-05-22T12:56:31.528Z,18.70
2019-05-22T12:59:36.140Z,18.80
2019-05-22T13:02:21.441Z,19.00
2019-05-22T13:04:56.744Z,18.80
2019-05-22T13:07:28.291Z,18.80
2019-05-22T13:10:18.323Z,18.70
2019-05-22T13:12:42.503Z,18.70
2019-05-22T13:15:14.467Z,18.60
2019-05-22T13:17:52.754Z,18.40
2019-05-22T13:20:45.378Z,18.70
2019-05-22T13:23:24.380Z,18.70
2019-05-22T13:26:16.004Z,18.90
2019-05-22T13:29:10.933Z,19.20
2019-05-22T13:31:45.535Z,19.40
2019-05-22T13:34:26.183Z,19.50
2019-05-22T13:37:02.094Z,19.30
2019-05-22T13:40:02.908Z,19.80
2019-05-22T13:42:07.897Z,19.50
2019-05-22T13:44:34.915Z,19.10
2019-05-22T13:47:06.017Z,19.40
2019-05-22T13:49:47.145Z,18.80
2019-05-22T13:52:37.345Z,18.70
2019-05-22T13:55:10.885Z,18.90
2019-05-22T13:57:45.806Z,19.10
2019-05-22T14:03:05.756Z,20.10
2019-05-22T14:08:12.118Z,20.00
2019-05-22T14:10:45.376Z,20.10
2019-05-22T14:13:20.072Z,19.80
2019-05-22T14:15:56.529Z,19.30
2019-05-22T14:18:31.132Z,19.60
2019-05-22T14:21:01.888Z,19.10
2019-05-22T14:23:35.679Z,19.40
2019-05-22T14:26:14.893Z,19.90
2019-05-22T14:29:00.201Z,20.50
2019-05-22T14:31:40.066Z,20.60
2019-05-22T14:34:16.731Z,19.60
2019-05-22T14:36:51.142Z,19.10
2019-05-22T14:39:29.681Z,18.90
2019-05-22T14:42:20.841Z,19.40
2019-05-22T14:44:38.554Z,19.60
2019-05-22T14:47:17.651Z,19.70
2019-05-22T14:49:47.071Z,19.80
2019-05-22T14:52:25.185Z,20.00
2019-05-22T14:56:00.097Z,19.80
2019-05-22T14:59:44.589Z,19.30
2019-05-22T15:02:27.854Z,19.70
2019-05-22T15:03:36.481Z,20.10
2019-05-22T15:06:10.447Z,19.80
2019-05-22T15:08:39.717Z,20.40
2019-05-22T15:11:12.791Z,20.30
2019-05-22T15:13:51.765Z,20.20
2019-05-22T15:16:29.634Z,20.60
2019-05-22T15:19:07.571Z,20.10
2019-05-22T15:21:35.235Z,20.10
2019-05-22T15:24:10.308Z,20.40
2019-05-22T15:26:43.517Z,20.20
2019-05-22T15:29:14.332Z,20.80
2019-05-22T15:31:44.179Z,20.90
2019-05-22T15:34:14.712Z,20.60
2019-05-22T15:36:49.729Z,20.00
2019-05-22T15:39:24.500Z,20.30
2019-05-22T15:41:56.833Z,20.70
2019-05-22T15:44:34.294Z,21.00
2019-05-22T15:47:18.847Z,20.90
2019-05-22T15:49:40.094Z,20.60
2019-05-22T15:52:13.677Z,20.90
2019-05-22T15:54:43.958Z,21.20
2019-05-22T15:57:14.374Z,20.90
2019-05-22T15:59:46.845Z,20.80
2019-05-22T16:02:21.960Z,21.20
2019-05-22T16:04:54.588Z,21.40
2019-05-22T16:07:29.291Z,21.20
2019-05-22T16:09:58.681Z,20.90
2019-05-22T16:12:30.007Z,20.60
2019-05-22T16:15:03.387Z,20.90
2019-05-22T16:17:34.486Z,21.20
2019-05-22T16:20:11.599Z,21.30
2019-05-22T16:22:38.929Z,21.20
2019-05-22T16:25:09.918Z,20.80
2019-05-22T16:27:43.756Z,21.20
2019-05-22T16:30:14.362Z,21.20
2019-05-22T16:32:44.193Z,20.80
2019-05-22T16:35:13.693Z,20.40
2019-05-22T16:37:42.670Z,20.40
2019-05-22T16:40:12.983Z,20.80
2019-05-22T16:42:42.689Z,20.80
2019-05-22T16:45:11.967Z,20.50
2019-05-22T16:47:41.864Z,20.50
2019-05-22T16:50:12.595Z,20.60
2019-05-22T16:52:44.869Z,20.80
2019-05-22T16:55:15.414Z,20.70
2019-05-22T16:57:47.160Z,20.10
2019-05-22T17:00:16.731Z,20.00
2019-05-22T17:02:46.363Z,20.00
2019-05-22T17:05:15.396Z,20.00
2019-05-22T17:07:45.028Z,20.10
2019-05-22T17:10:15.412Z,20.10
2019-05-22T17:12:44.812Z,20.20
2019-05-22T17:15:19.458Z,20.40
2019-05-22T17:17:48.910Z,20.40
2019-05-22T17:20:20.434Z,20.10
2019-05-22T17:22:49.507Z,19.90
2019-05-22T17:25:20.913Z,19.60
2019-05-22T17:27:50.337Z,19.90
2019-05-22T17:30:21.935Z,19.90
2019-05-22T17:32:51.061Z,19.60
2019-05-22T17:35:20.878Z,19.40
2019-05-22T17:37:50.081Z,19.70
2019-05-22T17:40:20.865Z,19.90
2019-05-22T17:42:52.866Z,19.80
2019-05-22T17:45:25.888Z,20.00
2019-05-22T17:47:55.592Z,20.00
2019-05-22T17:50:27.694Z,20.00
2019-05-22T17:52:57.087Z,19.70
2019-05-22T17:55:27.274Z,19.50
2019-05-22T17:57:56.263Z,19.50
2019-05-22T18:00:32.773Z,19.40
2019-05-22T18:03:02.418Z,19.30
2019-05-22T18:05:32.134Z,19.30
2019-05-22T18:08:01.043Z,19.00
2019-05-22T18:10:32.620Z,18.90
2019-05-22T18:13:01.940Z,19.00
2019-05-22T18:15:31.109Z,19.00
2019-05-22T18:17:59.901Z,18.80
2019-05-22T18:20:41.894Z,18.80
2019-05-22T18:23:00.022Z,18.80
2019-05-22T18:25:29.382Z,18.60
2019-05-22T18:27:58.431Z,18.60
2019-05-22T18:30:29.426Z,18.50
2019-05-22T18:32:57.914Z,18.30
2019-05-22T18:35:27.269Z,18.10
2019-05-22T18:37:56.308Z,18.10
2019-05-22T18:40:25.367Z,18.10
2019-05-22T18:42:57.185Z,18.20
2019-05-22T18:45:27.332Z,18.10
2019-05-22T18:47:56.482Z,18.10
2019-05-22T18:50:26.268Z,18.00
2019-05-22T18:52:55.252Z,17.90
2019-05-22T18:55:24.389Z,17.70
2019-05-22T18:57:53.386Z,17.70
2019-05-22T19:00:24.000Z,17.70
2019-05-22T19:02:53.402Z,17.60
2019-05-22T19:05:25.974Z,17.60
2019-05-22T19:07:56.033Z,17.40
2019-05-22T19:10:25.275Z,17.30
2019-05-22T19:12:53.880Z,17.30
2019-05-22T19:15:23.199Z,17.10
2019-05-22T19:17:52.276Z,16.80
2019-05-22T19:20:21.993Z,16.60
2019-05-22T19:23:00.406Z,16.50
2019-05-22T19:25:21.688Z,16.40
2019-05-22T19:27:50.738Z,16.40
2019-05-22T19:30:21.266Z,16.40
2019-05-22T19:32:51.358Z,16.40
2019-05-22T19:35:20.452Z,16.30
2019-05-22T19:37:50.651Z,15.90
2019-05-22T19:40:19.333Z,15.70
2019-05-22T19:42:48.724Z,15.50
2019-05-22T19:45:19.567Z,15.40
2019-05-22T19:47:55.039Z,15.30
2019-05-22T19:50:25.805Z,15.20
2019-05-22T19:52:55.594Z,15.20
2019-05-22T19:55:26.479Z,15.10
2019-05-22T19:57:55.851Z,15.20
2019-05-22T20:00:25.159Z,15.10
2019-05-22T20:02:56.499Z,15.00
2019-05-22T20:05:25.983Z,15.20
2019-05-22T20:07:54.536Z,15.00
2019-05-22T20:10:24.181Z,14.80
2019-05-22T20:12:53.237Z,14.70
2019-05-22T20:15:23.387Z,14.70
2019-05-22T20:17:52.481Z,14.50
2019-05-22T20:20:23.607Z,14.50
2019-05-22T20:22:52.197Z,14.40
2019-05-22T20:25:22.501Z,14.40
2019-05-22T20:27:51.815Z,14.30
2019-05-22T20:30:23.318Z,14.40
2019-05-22T20:32:52.315Z,14.50
2019-05-22T20:35:20.811Z,14.40
2019-05-22T20:37:49.859Z,14.40
2019-05-22T20:40:39.262Z,14.20
2019-05-22T20:43:09.320Z,14.20
2019-05-22T20:45:41.471Z,14.00
2019-05-22T20:48:13.624Z,14.00
2019-05-22T20:50:43.713Z,13.90
2019-05-22T20:53:14.796Z,13.80
2019-05-22T20:55:44.181Z,13.70
2019-05-22T20:58:14.821Z,13.60
2019-05-22T21:00:44.066Z,13.60
2019-05-22T21:03:13.681Z,13.50
2019-05-22T21:05:43.417Z,13.40
2019-05-22T21:08:13.904Z,13.40
2019-05-22T21:11:01.173Z,13.50
2019-05-22T21:13:31.304Z,13.40
2019-05-22T21:16:00.367Z,13.30
2019-05-22T21:18:30.815Z,13.20
2019-05-22T21:21:00.859Z,13.30
2019-05-22T21:23:30.002Z,13.20
2019-05-22T21:25:59.459Z,13.20
2019-05-22T21:28:28.519Z,13.00
2019-05-22T21:30:58.177Z,12.90
2019-05-22T21:33:27.219Z,12.90
2019-05-22T21:35:56.400Z,12.90
2019-05-22T21:38:26.935Z,12.80
2019-05-22T21:40:56.874Z,12.80
2019-05-22T21:43:26.444Z,12.70
2019-05-22T21:45:55.541Z,12.70
2019-05-22T21:48:24.534Z,12.60
2019-05-22T21:50:53.924Z,12.50
2019-05-22T21:53:22.354Z,12.50
2019-05-22T21:56:03.544Z,12.50
2019-05-22T21:58:22.361Z,12.50
2019-05-22T22:00:57.110Z,12.50
2019-05-22T22:03:29.230Z,12.40
2019-05-22T22:05:58.955Z,12.20
2019-05-22T22:08:28.301Z,12.20
2019-05-22T22:10:57.642Z,12.10
2019-05-22T22:13:27.586Z,12.20
2019-05-22T22:15:57.140Z,12.30
2019-05-22T22:18:27.090Z,12.30
2019-05-22T22:20:57.181Z,12.10
2019-05-22T22:23:25.789Z,12.30
2019-05-22T22:25:55.035Z,12.30
2019-05-22T22:28:25.630Z,12.40
2019-05-22T22:31:06.395Z,12.40
2019-05-22T22:33:37.425Z,12.20
2019-05-22T22:36:08.544Z,11.90
2019-05-22T22:38:38.704Z,11.80
2019-05-22T22:41:10.011Z,11.80
2019-05-22T22:43:41.351Z,11.70
2019-05-22T22:46:16.935Z,11.90
2019-05-22T22:48:47.090Z,11.70
2019-05-22T22:51:17.021Z,11.90
2019-05-22T22:53:46.104Z,12.10
2019-05-22T22:56:15.759Z,11.80
2019-05-22T22:58:46.191Z,11.80
2019-05-22T23:01:21.769Z,11.80
2019-05-22T23:03:51.428Z,11.60
2019-05-22T23:06:20.662Z,11.70
2019-05-22T23:08:50.745Z,11.50
2019-05-22T23:11:19.728Z,11.80
2019-05-22T23:13:50.165Z,11.70
2019-05-22T23:16:20.801Z,11.30
2019-05-22T23:19:09.780Z,11.30
2019-05-22T23:21:38.379Z,11.40
2019-05-22T23:24:07.685Z,11.40
2019-05-22T23:26:37.002Z,11.40
2019-05-22T23:29:07.422Z,11.30
2019-05-22T23:31:37.993Z,11.20
2019-05-22T23:34:08.076Z,11.10
2019-05-22T23:36:38.363Z,11.10
2019-05-22T23:39:15.672Z,11.10
2019-05-22T23:41:45.712Z,11.00
2019-05-22T23:44:17.970Z,11.00
2019-05-22T23:46:46.963Z,11.00
2019-05-22T23:49:17.210Z,11.00
2019-05-22T23:51:47.319Z,11.00
2019-05-22T23:54:16.923Z,11.00
2019-05-22T23:56:46.254Z,11.00
2019-05-22T23:59:17.309Z,11.10
